»·PEaware :: N2822D CYYJ-KHIO

N2822D :: CYYJ-KHIO

FLIGHT INFORMATION

Flight Status: Arrived
Operator: Privately registered:
United States
More flights under this callsign
Pilot: Wayne R. (17783)
Aircraft: CESSNA 310
(C310)
More flights by this aircraft type
Origin: CYYJ Victoria Intl
Canada
Destination: KHIO Portland-Hillsboro
United States
More flights between these airports :: More routes between these airports
Route:
File this flight plan on PilotEdge
Remarks:
Altitude:
(Current/Filed)
5,500ft
Speed:
(Current/Filed)
145kts
Departed: 17-Feb-20 05:50 PM
Arrived: 17-Feb-20 07:00 PM
Distance/Time
Traveled:
177nm/1:10
Distance/Time
To Go:
Arrived

Flight Plot

Page will automatically refresh every two minutes.


Map Options




Map Legend


Flown Route
Filed Route
Departure Airport
Arrival Airport
Navaid (VOR, NDB)
Fix

Horizontal Profiles

Position Reports

Time Latitude Longitude Heading Altitude Ground
Speed
17-Feb-20 17:48 48.650780 -123.431839 152 61ft 67kts
17-Feb-20 17:49 48.626087 -123.401376 133 761ft 131kts
17-Feb-20 17:50 48.599387 -123.361305 133 1205ft 134kts
17-Feb-20 17:51 48.572652 -123.321436 133 1603ft 136kts
17-Feb-20 17:52 48.545628 -123.281048 135 2001ft 133kts
17-Feb-20 17:53 48.507982 -123.274574 183 2245ft 140kts
17-Feb-20 17:54 48.469663 -123.272667 168 2576ft 137kts
17-Feb-20 17:55 48.431487 -123.263381 169 3058ft 141kts
17-Feb-20 17:56 48.392602 -123.253987 169 3611ft 143kts
17-Feb-20 17:57 48.351734 -123.244145 171 3867ft 160kts
17-Feb-20 17:58 48.304498 -123.234859 169 3698ft 175kts
17-Feb-20 17:59 48.256535 -123.222327 169 3497ft 177kts
17-Feb-20 18:00 48.207748 -123.210039 168 3543ft 174kts
17-Feb-20 18:01 48.159854 -123.198482 168 3637ft 169kts
17-Feb-20 18:02 48.113848 -123.192751 174 3884ft 167kts
17-Feb-20 18:03 48.067760 -123.186339 151 3998ft 165kts
17-Feb-20 18:04 48.034291 -123.153888 140 4828ft 133kts
17-Feb-20 18:05 48.003862 -123.121811 140 5582ft 135kts
17-Feb-20 18:06 47.968347 -123.083458 140 5639ft 171kts
17-Feb-20 18:07 47.932170 -123.034774 132 5648ft 178kts
17-Feb-20 18:08 47.896872 -122.982462 132 5648ft 180kts
17-Feb-20 18:09 47.859355 -122.932161 136 5647ft 182kts
17-Feb-20 18:10 47.819758 -122.884270 152 5648ft 187kts
17-Feb-20 18:11 47.768585 -122.870061 177 5648ft 190kts
17-Feb-20 18:12 47.715848 -122.866563 177 5649ft 190kts
17-Feb-20 18:13 47.662903 -122.863218 179 5650ft 191kts
17-Feb-20 18:14 47.609674 -122.864593 181 5650ft 191kts
17-Feb-20 18:15 47.556337 -122.865855 181 5650ft 191kts
17-Feb-20 18:16 47.502904 -122.867110 181 5651ft 192kts
17-Feb-20 18:17 47.449644 -122.868358 181 5651ft 192kts
17-Feb-20 18:18 47.396121 -122.870943 181 5651ft 192kts
17-Feb-20 18:19 47.342720 -122.873333 182 5651ft 192kts
17-Feb-20 18:20 47.289402 -122.875098 182 5652ft 192kts
17-Feb-20 18:21 47.236145 -122.877079 184 5652ft 191kts
17-Feb-20 18:22 47.183071 -122.880156 183 5652ft 190kts
17-Feb-20 18:23 47.130463 -122.883095 183 5651ft 189kts
17-Feb-20 18:24 47.077626 -122.886075 183 5651ft 189kts
17-Feb-20 18:26 47.028125 -122.888848 183 5651ft 190kts
17-Feb-20 18:27 46.975224 -122.891821 183 5652ft 190kts
17-Feb-20 18:28 46.922196 -122.894913 183 5652ft 191kts
17-Feb-20 18:29 46.870445 -122.898055 183 5652ft 192kts
17-Feb-20 18:30 46.817016 -122.901333 183 5652ft 192kts
17-Feb-20 18:31 46.763599 -122.904604 183 5653ft 192kts
17-Feb-20 18:32 46.710145 -122.907861 183 5653ft 192kts
17-Feb-20 18:33 46.659828 -122.910895 183 5619ft 188kts
17-Feb-20 18:34 46.607103 -122.914149 183 5147ft 188kts
17-Feb-20 18:35 46.554798 -122.917488 183 4724ft 188kts
17-Feb-20 18:36 46.503026 -122.920865 183 4375ft 185kts
17-Feb-20 18:37 46.451483 -122.924308 183 3903ft 184kts
17-Feb-20 18:38 46.400535 -122.927795 183 3613ft 182kts
17-Feb-20 18:39 46.350574 -122.931244 183 3495ft 175kts
17-Feb-20 18:40 46.302378 -122.934564 183 3491ft 172kts
17-Feb-20 18:41 46.254873 -122.938797 187 3490ft 171kts
17-Feb-20 18:42 46.207640 -122.946705 187 3490ft 170kts
17-Feb-20 18:43 46.160537 -122.954526 187 3490ft 170kts
17-Feb-20 18:44 46.112206 -122.962508 187 3497ft 177kts
17-Feb-20 18:45 46.062693 -122.969151 184 3499ft 179kts
17-Feb-20 18:45 46.021338 -122.972981 184 3499ft 179kts
17-Feb-20 18:46 45.971257 -122.976791 182 3499ft 180kts
17-Feb-20 18:48 45.912781 -122.979788 182 3499ft 181kts
17-Feb-20 18:48 45.872698 -122.981983 182 3499ft 181kts
17-Feb-20 18:49 45.822546 -122.984442 179 3498ft 181kts
17-Feb-20 18:50 45.771994 -122.983971 179 3498ft 181kts
17-Feb-20 18:51 45.721576 -122.982481 176 3500ft 181kts
17-Feb-20 18:52 45.671593 -122.980196 176 3462ft 176kts
17-Feb-20 18:53 45.629015 -122.975127 173 3146ft 129kts
17-Feb-20 18:54 45.593911 -122.971802 172 1950ft 116kts
17-Feb-20 18:55 45.563987 -122.963901 172 1260ft 106kts
17-Feb-20 18:56 45.536149 -122.960796 164 1311ft 95kts
17-Feb-20 18:57 45.516307 -122.939353 83 1094ft 95kts
17-Feb-20 18:58 45.538873 -122.948392 322 205ft 81kts
17-Feb-20 18:59 45.541605 -122.954843 347 205ft 0kts
17-Feb-20 19:00 45.541606 -122.954844 347 205ft 0kts
17-Feb-20 19:01 45.541606 -122.954844 347 205ft 0kts
17-Feb-20 19:02 45.541606 -122.954844 347 205ft 0kts
17-Feb-20 19:03 45.541606 -122.954844 347 205ft 0kts
17-Feb-20 19:04 45.541606 -122.954844 347 205ft 0kts
17-Feb-20 19:05 45.541606 -122.954844 347 205ft 0kts
17-Feb-20 19:06 45.541606 -122.954844 347 205ft 0kts
17-Feb-20 19:07 45.541606 -122.954844 347 205ft 0kts
17-Feb-20 19:08 45.541606 -122.954844 347 205ft 0kts
17-Feb-20 19:09 45.541606 -122.954844 347 205ft 0kts
17-Feb-20 19:10 45.541606 -122.954844 347 205ft 0kts
17-Feb-20 19:11 49.969103 -119.379606 174 1414ft 0kts
17-Feb-20 19:12 49.969103 -119.379606 174 1414ft 0kts
17-Feb-20 19:13 49.968992 -119.379532 164 1414ft 0kts

Navigation Log

Ident Type
Flight plan parsing failed, navigation log unavailable